KRHI/RHI METAR and TAF weather

Enter ICAO airport designator
Station Type Date Time Source
KRHI METAR 2022/01/18 06:53 UTC NOAA

KRHI 180653Z AUTO 00000KT 10SM OVC019 M06/M08 A2980 RMK AO2 SLP117 T10561078


Station Type Date Time Source
KRHI Decoded METAR 2022/01/18 06:53 UTC NOAA

RHINELANDER-ONEIDA CO AIRPORT , WI, United States (KRHI) 45-38N 89-29W 485M
Jan 18, 2022 - 01:53 AM EST / 2022.01.18 0653 UTC
Wind: Calm:0
Visibility: 10 mile(s):0
Sky conditions: overcast
Temperature: 21.9 F (-5.6 C)
Dew Point: 18.0 F (-7.8 C)
Relative Humidity: 84%
Pressure (altimeter): 29.8 in. Hg (1009 hPa)
ob: KRHI 180653Z AUTO 00000KT 10SM OVC019 M06/M08 A2980 RMK AO2 SLP117 T10561078
cycle: 7

Station Type Date Time Source
KRHI TAF 2022/01/18 06:22 UTC NOAA

TAF KRHI 180520Z 1806/1906 16003KT P6SM -SHSN OVC016
FM181300 14007KT 5SM -SHSN OVC007
FM181600 15009G19KT 1SM -SHSN OVC006
FM181700 18011G22KT 5SM -SHSN OVC006
FM190000 24010G21KT 5SM -SN OVC005
FM190200 28012G24KT P6SM -SHSN OVC011

Example: see airport list